sensor_id;sensor_type;location;lat;lon;timestamp;pressure;altitude;pressure_sealevel;temperature
40199;BMP280;25906;43.536;26.068;2023-11-18T00:00:15;98006.69;;;8.65
40199;BMP280;25906;43.536;26.068;2023-11-18T00:03:02;98007.63;;;8.71
40199;BMP280;25906;43.536;26.068;2023-11-18T00:05:48;98000.66;;;8.65
40199;BMP280;25906;43.536;26.068;2023-11-18T00:08:34;97998.34;;;8.67
40199;BMP280;25906;43.536;26.068;2023-11-18T00:11:19;97991.28;;;8.51
40199;BMP280;25906;43.536;26.068;2023-11-18T00:14:05;97994.34;;;8.50
40199;BMP280;25906;43.536;26.068;2023-11-18T00:16:50;97980.84;;;8.60
40199;BMP280;25906;43.536;26.068;2023-11-18T00:19:36;97988.22;;;8.53
40199;BMP280;25906;43.536;26.068;2023-11-18T00:22:21;97980.94;;;8.57
40199;BMP280;25906;43.536;26.068;2023-11-18T00:25:07;97989.50;;;8.48
40199;BMP280;25906;43.536;26.068;2023-11-18T00:27:53;97993.38;;;8.56
40199;BMP280;25906;43.536;26.068;2023-11-18T00:30:39;97994.66;;;8.39
40199;BMP280;25906;43.536;26.068;2023-11-18T00:33:25;97992.75;;;8.40
40199;BMP280;25906;43.536;26.068;2023-11-18T00:36:10;97994.34;;;8.37
40199;BMP280;25906;43.536;26.068;2023-11-18T00:38:56;97995.50;;;8.36
40199;BMP280;25906;43.536;26.068;2023-11-18T00:41:41;97996.88;;;8.28
40199;BMP280;25906;43.536;26.068;2023-11-18T00:44:27;97997.75;;;8.21
40199;BMP280;25906;43.536;26.068;2023-11-18T00:47:12;97991.44;;;8.19
40199;BMP280;25906;43.536;26.068;2023-11-18T00:49:58;97999.56;;;8.12
40199;BMP280;25906;43.536;26.068;2023-11-18T00:52:44;97984.06;;;8.14
40199;BMP280;25906;43.536;26.068;2023-11-18T00:55:32;97987.13;;;8.12
40199;BMP280;25906;43.536;26.068;2023-11-18T00:58:21;97982.50;;;8.16
40199;BMP280;25906;43.536;26.068;2023-11-18T01:01:07;97993.84;;;8.13
40199;BMP280;25906;43.536;26.068;2023-11-18T01:03:53;98001.59;;;8.20
40199;BMP280;25906;43.536;26.068;2023-11-18T01:06:38;98009.03;;;8.22
40199;BMP280;25906;43.536;26.068;2023-11-18T01:09:24;98003.69;;;8.13
40199;BMP280;25906;43.536;26.068;2023-11-18T01:12:10;98002.50;;;8.14
40199;BMP280;25906;43.536;26.068;2023-11-18T01:14:55;97995.84;;;8.09
40199;BMP280;25906;43.536;26.068;2023-11-18T01:17:41;97992.69;;;8.02
40199;BMP280;25906;43.536;26.068;2023-11-18T01:20:27;97997.13;;;8.05
40199;BMP280;25906;43.536;26.068;2023-11-18T01:23:12;97997.19;;;7.89
40199;BMP280;25906;43.536;26.068;2023-11-18T01:25:58;97992.03;;;7.98
40199;BMP280;25906;43.536;26.068;2023-11-18T01:28:44;97991.41;;;7.94
40199;BMP280;25906;43.536;26.068;2023-11-18T01:31:30;97993.38;;;7.90
40199;BMP280;25906;43.536;26.068;2023-11-18T01:34:15;97996.34;;;7.92
40199;BMP280;25906;43.536;26.068;2023-11-18T01:37:02;97997.75;;;7.96
40199;BMP280;25906;43.536;26.068;2023-11-18T01:39:48;98013.22;;;7.94
40199;BMP280;25906;43.536;26.068;2023-11-18T01:42:34;97986.53;;;7.92
40199;BMP280;25906;43.536;26.068;2023-11-18T01:45:20;97955.59;;;7.96
40199;BMP280;25906;43.536;26.068;2023-11-18T01:48:05;97986.06;;;7.97
40199;BMP280;25906;43.536;26.068;2023-11-18T01:50:51;98016.78;;;7.88
40199;BMP280;25906;43.536;26.068;2023-11-18T01:53:37;98019.72;;;7.90
40199;BMP280;25906;43.536;26.068;2023-11-18T01:56:25;98008.41;;;7.76
40199;BMP280;25906;43.536;26.068;2023-11-18T01:59:11;98009.91;;;7.90
40199;BMP280;25906;43.536;26.068;2023-11-18T02:02:04;97997.59;;;7.87
40199;BMP280;25906;43.536;26.068;2023-11-18T02:04:49;97994.72;;;7.81
40199;BMP280;25906;43.536;26.068;2023-11-18T02:07:35;97977.13;;;7.78
40199;BMP280;25906;43.536;26.068;2023-11-18T02:10:22;97966.59;;;7.78
40199;BMP280;25906;43.536;26.068;2023-11-18T02:13:12;97947.25;;;7.85
40199;BMP280;25906;43.536;26.068;2023-11-18T02:16:02;97936.72;;;7.85
40199;BMP280;25906;43.536;26.068;2023-11-18T02:18:49;97941.50;;;7.74
40199;BMP280;25906;43.536;26.068;2023-11-18T02:21:36;97938.66;;;7.68
40199;BMP280;25906;43.536;26.068;2023-11-18T02:24:29;97939.94;;;7.76
40199;BMP280;25906;43.536;26.068;2023-11-18T02:27:21;97959.22;;;7.73
40199;BMP280;25906;43.536;26.068;2023-11-18T02:30:10;97971.31;;;7.71
40199;BMP280;25906;43.536;26.068;2023-11-18T02:33:05;97976.28;;;7.81
40199;BMP280;25906;43.536;26.068;2023-11-18T02:36:30;97978.84;;;7.85
40199;BMP280;25906;43.536;26.068;2023-11-18T02:39:38;97991.19;;;7.88
40199;BMP280;25906;43.536;26.068;2023-11-18T02:42:24;97996.53;;;7.84
40199;BMP280;25906;43.536;26.068;2023-11-18T02:45:13;98002.63;;;7.81
40199;BMP280;25906;43.536;26.068;2023-11-18T02:48:02;97997.59;;;7.87
40199;BMP280;25906;43.536;26.068;2023-11-18T02:50:47;97995.47;;;7.82
40199;BMP280;25906;43.536;26.068;2023-11-18T02:53:33;97986.38;;;7.70
40199;BMP280;25906;43.536;26.068;2023-11-18T02:56:19;97998.66;;;7.61
40199;BMP280;25906;43.536;26.068;2023-11-18T02:59:05;98008.66;;;7.66
40199;BMP280;25906;43.536;26.068;2023-11-18T03:01:53;98011.41;;;7.62
40199;BMP280;25906;43.536;26.068;2023-11-18T03:04:40;98011.41;;;7.62
40199;BMP280;25906;43.536;26.068;2023-11-18T03:07:30;98009.59;;;7.59
40199;BMP280;25906;43.536;26.068;2023-11-18T03:10:17;98012.19;;;7.47
40199;BMP280;25906;43.536;26.068;2023-11-18T03:13:08;98007.91;;;7.53
40199;BMP280;25906;43.536;26.068;2023-11-18T03:15:53;97996.63;;;7.52
40199;BMP280;25906;43.536;26.068;2023-11-18T03:18:40;97994.94;;;7.58
40199;BMP280;25906;43.536;26.068;2023-11-18T03:21:25;98009.06;;;7.52
40199;BMP280;25906;43.536;26.068;2023-11-18T03:24:11;97993.53;;;7.41
40199;BMP280;25906;43.536;26.068;2023-11-18T03:26:57;97996.06;;;7.45
40199;BMP280;25906;43.536;26.068;2023-11-18T03:29:42;97991.13;;;7.47
40199;BMP280;25906;43.536;26.068;2023-11-18T03:32:28;97996.56;;;7.39
40199;BMP280;25906;43.536;26.068;2023-11-18T03:35:14;97988.16;;;7.45
40199;BMP280;25906;43.536;26.068;2023-11-18T03:37:59;97978.50;;;7.54
40199;BMP280;25906;43.536;26.068;2023-11-18T03:40:45;97981.13;;;7.54
40199;BMP280;25906;43.536;26.068;2023-11-18T03:43:31;97978.91;;;7.40
40199;BMP280;25906;43.536;26.068;2023-11-18T03:46:17;97984.31;;;7.49
40199;BMP280;25906;43.536;26.068;2023-11-18T03:49:02;97985.47;;;7.32
40199;BMP280;25906;43.536;26.068;2023-11-18T03:51:48;97985.38;;;7.35
40199;BMP280;25906;43.536;26.068;2023-11-18T03:54:34;97981.59;;;7.36
40199;BMP280;25906;43.536;26.068;2023-11-18T03:57:19;97977.25;;;7.30
40199;BMP280;25906;43.536;26.068;2023-11-18T04:00:05;97970.50;;;7.29
40199;BMP280;25906;43.536;26.068;2023-11-18T04:02:51;97960.28;;;7.31
40199;BMP280;25906;43.536;26.068;2023-11-18T04:05:37;97969.78;;;7.28
40199;BMP280;25906;43.536;26.068;2023-11-18T04:08:24;97977.31;;;7.26
40199;BMP280;25906;43.536;26.068;2023-11-18T04:11:10;97969.44;;;7.26
40199;BMP280;25906;43.536;26.068;2023-11-18T04:13:56;97972.50;;;7.09
40199;BMP280;25906;43.536;26.068;2023-11-18T04:16:41;97965.00;;;7.07
40199;BMP280;25906;43.536;26.068;2023-11-18T04:19:29;97968.28;;;7.11
40199;BMP280;25906;43.536;26.068;2023-11-18T04:22:15;97960.34;;;6.98
40199;BMP280;25906;43.536;26.068;2023-11-18T04:25:01;97953.53;;;7.01
40199;BMP280;25906;43.536;26.068;2023-11-18T04:27:46;97941.25;;;6.94
40199;BMP280;25906;43.536;26.068;2023-11-18T04:30:32;97946.63;;;6.91
40199;BMP280;25906;43.536;26.068;2023-11-18T04:33:18;97940.28;;;6.88
40199;BMP280;25906;43.536;26.068;2023-11-18T04:36:03;97934.94;;;6.76
40199;BMP280;25906;43.536;26.068;2023-11-18T04:38:50;97940.59;;;6.74
40199;BMP280;25906;43.536;26.068;2023-11-18T04:41:36;97921.88;;;6.72
40199;BMP280;25906;43.536;26.068;2023-11-18T04:44:21;97935.00;;;6.72
40199;BMP280;25906;43.536;26.068;2023-11-18T04:47:07;97949.31;;;6.71
40199;BMP280;25906;43.536;26.068;2023-11-18T04:49:53;97945.47;;;6.76
40199;BMP280;25906;43.536;26.068;2023-11-18T04:52:39;97950.63;;;6.79
40199;BMP280;25906;43.536;26.068;2023-11-18T04:55:25;97947.34;;;6.75
40199;BMP280;25906;43.536;26.068;2023-11-18T04:58:14;97952.13;;;6.80
40199;BMP280;25906;43.536;26.068;2023-11-18T05:01:01;97955.41;;;6.68
40199;BMP280;25906;43.536;26.068;2023-11-18T05:03:46;97958.84;;;6.65
40199;BMP280;25906;43.536;26.068;2023-11-18T05:06:32;97963.84;;;6.60
40199;BMP280;25906;43.536;26.068;2023-11-18T05:09:17;97951.75;;;6.46
40199;BMP280;25906;43.536;26.068;2023-11-18T05:12:03;97965.50;;;6.34
40199;BMP280;25906;43.536;26.068;2023-11-18T05:14:51;97966.72;;;6.29
40199;BMP280;25906;43.536;26.068;2023-11-18T05:17:37;97964.38;;;6.35
40199;BMP280;25906;43.536;26.068;2023-11-18T05:20:22;97958.28;;;6.22
40199;BMP280;25906;43.536;26.068;2023-11-18T05:23:08;97951.44;;;6.24
40199;BMP280;25906;43.536;26.068;2023-11-18T05:25:57;97948.22;;;6.17
40199;BMP280;25906;43.536;26.068;2023-11-18T05:28:46;97945.84;;;6.22
40199;BMP280;25906;43.536;26.068;2023-11-18T05:31:32;97973.59;;;6.23
40199;BMP280;25906;43.536;26.068;2023-11-18T05:34:18;97964.38;;;6.35
40199;BMP280;25906;43.536;26.068;2023-11-18T05:37:05;97972.06;;;6.26
40199;BMP280;25906;43.536;26.068;2023-11-18T05:39:51;97983.09;;;6.37
40199;BMP280;25906;43.536;26.068;2023-11-18T05:42:44;97981.63;;;6.16
40199;BMP280;25906;43.536;26.068;2023-11-18T05:45:31;97964.81;;;6.14
40199;BMP280;25906;43.536;26.068;2023-11-18T05:48:39;97971.00;;;6.03
40199;BMP280;25906;43.536;26.068;2023-11-18T05:51:26;97971.16;;;5.96
40199;BMP280;25906;43.536;26.068;2023-11-18T05:54:11;97961.97;;;6.04
40199;BMP280;25906;43.536;26.068;2023-11-18T05:56:57;97959.16;;;5.95
40199;BMP280;25906;43.536;26.068;2023-11-18T05:59:45;97957.63;;;5.98
40199;BMP280;25906;43.536;26.068;2023-11-18T06:02:33;97955.00;;;5.98
40199;BMP280;25906;43.536;26.068;2023-11-18T06:05:19;97946.16;;;5.88
40199;BMP280;25906;43.536;26.068;2023-11-18T06:08:04;97948.84;;;5.85
40199;BMP280;25906;43.536;26.068;2023-11-18T06:10:50;97956.13;;;5.97
40199;BMP280;25906;43.536;26.068;2023-11-18T06:13:51;97989.28;;;5.87
40199;BMP280;25906;43.536;26.068;2023-11-18T06:16:38;98016.28;;;5.88
40199;BMP280;25906;43.536;26.068;2023-11-18T06:19:26;98025.19;;;5.94
40199;BMP280;25906;43.536;26.068;2023-11-18T06:22:12;98035.34;;;5.92
40199;BMP280;25906;43.536;26.068;2023-11-18T06:24:58;98027.44;;;5.95
40199;BMP280;25906;43.536;26.068;2023-11-18T06:27:43;98021.91;;;5.90
40199;BMP280;25906;43.536;26.068;2023-11-18T06:30:30;98025.38;;;5.83
40199;BMP280;25906;43.536;26.068;2023-11-18T06:33:16;98023.97;;;5.79
40199;BMP280;25906;43.536;26.068;2023-11-18T06:36:04;98023.91;;;5.82
40199;BMP280;25906;43.536;26.068;2023-11-18T06:38:51;98021.28;;;5.82
40199;BMP280;25906;43.536;26.068;2023-11-18T06:41:37;98008.84;;;5.63
40199;BMP280;25906;43.536;26.068;2023-11-18T06:44:33;98001.25;;;5.68
40199;BMP280;25906;43.536;26.068;2023-11-18T06:47:20;98001.88;;;5.56
40199;BMP280;25906;43.536;26.068;2023-11-18T06:50:05;97991.88;;;5.48
40199;BMP280;25906;43.536;26.068;2023-11-18T06:52:53;97999.97;;;5.57
40199;BMP280;25906;43.536;26.068;2023-11-18T06:55:39;97994.00;;;5.56
40199;BMP280;25906;43.536;26.068;2023-11-18T06:58:25;97996.25;;;5.54
40199;BMP280;25906;43.536;26.068;2023-11-18T07:01:13;97988.03;;;5.52
40199;BMP280;25906;43.536;26.068;2023-11-18T07:03:59;97982.78;;;5.52
40199;BMP280;25906;43.536;26.068;2023-11-18T07:06:45;97989.91;;;5.52
40199;BMP280;25906;43.536;26.068;2023-11-18T07:09:30;97993.84;;;5.63
40199;BMP280;25906;43.536;26.068;2023-11-18T07:12:21;98005.13;;;5.60
40199;BMP280;25906;43.536;26.068;2023-11-18T07:15:07;98004.28;;;5.67
40199;BMP280;25906;43.536;26.068;2023-11-18T07:17:55;98005.44;;;5.66
40199;BMP280;25906;43.536;26.068;2023-11-18T07:20:41;97992.00;;;5.60
40199;BMP280;25906;43.536;26.068;2023-11-18T07:23:27;97996.84;;;5.65
40199;BMP280;25906;43.536;26.068;2023-11-18T07:26:12;97992.72;;;5.64
40199;BMP280;25906;43.536;26.068;2023-11-18T07:28:59;97985.25;;;5.63
40199;BMP280;25906;43.536;26.068;2023-11-18T07:31:44;97978.47;;;5.65
40199;BMP280;25906;43.536;26.068;2023-11-18T07:34:31;97981.50;;;5.60
40199;BMP280;25906;43.536;26.068;2023-11-18T07:37:18;97976.25;;;5.60
40199;BMP280;25906;43.536;26.068;2023-11-18T07:40:04;97950.25;;;5.50
40199;BMP280;25906;43.536;26.068;2023-11-18T07:42:50;97961.34;;;5.57
40199;BMP280;25906;43.536;26.068;2023-11-18T07:45:36;97980.44;;;5.58
40199;BMP280;25906;43.536;26.068;2023-11-18T07:48:24;97981.25;;;5.75
40199;BMP280;25906;43.536;26.068;2023-11-18T07:51:10;97978.53;;;5.58
40199;BMP280;25906;43.536;26.068;2023-11-18T07:53:56;97977.75;;;5.61
40199;BMP280;25906;43.536;26.068;2023-11-18T07:56:42;97979.25;;;5.62
40199;BMP280;25906;43.536;26.068;2023-11-18T07:59:28;97970.75;;;5.75
40199;BMP280;25906;43.536;26.068;2023-11-18T08:02:14;97958.22;;;5.66
40199;BMP280;25906;43.536;26.068;2023-11-18T08:05:01;97958.47;;;5.72
40199;BMP280;25906;43.536;26.068;2023-11-18T08:07:48;97950.81;;;5.81
40199;BMP280;25906;43.536;26.068;2023-11-18T08:10:34;97934.97;;;5.84
40199;BMP280;25906;43.536;26.068;2023-11-18T08:13:23;97930.00;;;5.90
40199;BMP280;25906;43.536;26.068;2023-11-18T08:16:08;97941.13;;;5.97
40199;BMP280;25906;43.536;26.068;2023-11-18T08:18:54;97949.16;;;6.06
40199;BMP280;25906;43.536;26.068;2023-11-18T08:21:40;97970.31;;;5.99
40199;BMP280;25906;43.536;26.068;2023-11-18T08:24:27;98002.00;;;6.12
40199;BMP280;25906;43.536;26.068;2023-11-18T08:27:14;98023.00;;;6.12
40199;BMP280;25906;43.536;26.068;2023-11-18T08:30:00;98017.44;;;6.06
40199;BMP280;25906;43.536;26.068;2023-11-18T08:32:45;97998.06;;;6.00
40199;BMP280;25906;43.536;26.068;2023-11-18T08:35:31;97978.34;;;6.12
40199;BMP280;25906;43.536;26.068;2023-11-18T08:38:16;97968.63;;;6.09
40199;BMP280;25906;43.536;26.068;2023-11-18T08:41:03;97963.03;;;6.07
40199;BMP280;25906;43.536;26.068;2023-11-18T08:43:48;97967.38;;;5.97
40199;BMP280;25906;43.536;26.068;2023-11-18T08:46:34;97968.91;;;5.95
40199;BMP280;25906;43.536;26.068;2023-11-18T08:49:20;97955.38;;;5.96
40199;BMP280;25906;43.536;26.068;2023-11-18T08:52:08;97965.75;;;6.03
40199;BMP280;25906;43.536;26.068;2023-11-18T08:54:57;97974.50;;;5.97
40199;BMP280;25906;43.536;26.068;2023-11-18T08:58:02;97971.19;;;5.93
40199;BMP280;25906;43.536;26.068;2023-11-18T09:00:51;97975.56;;;5.99
40199;BMP280;25906;43.536;26.068;2023-11-18T09:03:40;97985.22;;;6.06
40199;BMP280;25906;43.536;26.068;2023-11-18T09:06:33;97996.34;;;6.14
40199;BMP280;25906;43.536;26.068;2023-11-18T09:09:21;97993.28;;;6.15
40199;BMP280;25906;43.536;26.068;2023-11-18T09:12:13;97984.19;;;6.20
40199;BMP280;25906;43.536;26.068;2023-11-18T09:15:00;97980.34;;;6.24
40199;BMP280;25906;43.536;26.068;2023-11-18T09:17:49;97981.91;;;6.22
40199;BMP280;25906;43.536;26.068;2023-11-18T09:20:35;97982.63;;;6.22
40199;BMP280;25906;43.536;26.068;2023-11-18T09:23:22;97981.16;;;6.21
40199;BMP280;25906;43.536;26.068;2023-11-18T09:26:09;97993.28;;;6.35
40199;BMP280;25906;43.536;26.068;2023-11-18T09:28:55;97989.50;;;6.36
40199;BMP280;25906;43.536;26.068;2023-11-18T09:31:41;97979.22;;;6.25
40199;BMP280;25906;43.536;26.068;2023-11-18T09:34:27;97974.69;;;6.26
40199;BMP280;25906;43.536;26.068;2023-11-18T09:37:18;97973.41;;;6.34
40199;BMP280;25906;43.536;26.068;2023-11-18T09:40:04;97988.94;;;6.44
40199;BMP280;25906;43.536;26.068;2023-11-18T09:42:56;97981.63;;;6.36
40199;BMP280;25906;43.536;26.068;2023-11-18T09:45:44;97979.00;;;6.36
40199;BMP280;25906;43.536;26.068;2023-11-18T09:48:30;97992.75;;;6.60
40199;BMP280;25906;43.536;26.068;2023-11-18T09:51:27;97996.00;;;6.67
40199;BMP280;25906;43.536;26.068;2023-11-18T09:54:39;97990.66;;;6.35
40199;BMP280;25906;43.536;26.068;2023-11-18T09:57:35;97979.66;;;6.40
40199;BMP280;25906;43.536;26.068;2023-11-18T10:00:26;97968.75;;;6.41
40199;BMP280;25906;43.536;26.068;2023-11-18T10:03:17;97965.72;;;6.43
40199;BMP280;25906;43.536;26.068;2023-11-18T10:06:03;97960.06;;;6.25
40199;BMP280;25906;43.536;26.068;2023-11-18T10:08:51;97961.41;;;6.33
40199;BMP280;25906;43.536;26.068;2023-11-18T10:11:38;97953.91;;;6.31
40199;BMP280;25906;43.536;26.068;2023-11-18T10:14:23;97954.81;;;6.25
40199;BMP280;25906;43.536;26.068;2023-11-18T10:17:09;97948.78;;;6.28
40199;BMP280;25906;43.536;26.068;2023-11-18T10:19:59;97941.88;;;6.34
40199;BMP280;25906;43.536;26.068;2023-11-18T10:22:45;97935.63;;;6.28
40199;BMP280;25906;43.536;26.068;2023-11-18T10:25:30;97935.88;;;6.33
40199;BMP280;25906;43.536;26.068;2023-11-18T10:28:34;97930.69;;;6.30
40199;BMP280;25906;43.536;26.068;2023-11-18T10:31:21;97910.09;;;6.28
40199;BMP280;25906;43.536;26.068;2023-11-18T10:34:09;97919.75;;;6.31
40199;BMP280;25906;43.536;26.068;2023-11-18T10:37:01;97910.00;;;6.32
40199;BMP280;25906;43.536;26.068;2023-11-18T10:39:50;97922.19;;;6.42
40199;BMP280;25906;43.536;26.068;2023-11-18T10:42:39;97919.97;;;6.40
40199;BMP280;25906;43.536;26.068;2023-11-18T10:45:25;97916.75;;;6.49
40199;BMP280;25906;43.536;26.068;2023-11-18T10:48:12;97914.72;;;6.40
40199;BMP280;25906;43.536;26.068;2023-11-18T10:51:01;97916.00;;;6.32
40199;BMP280;25906;43.536;26.068;2023-11-18T10:53:48;97917.56;;;6.30
40199;BMP280;25906;43.536;26.068;2023-11-18T10:56:49;97911.66;;;6.26
40199;BMP280;25906;43.536;26.068;2023-11-18T10:59:35;97912.03;;;6.24
40199;BMP280;25906;43.536;26.068;2023-11-18T11:02:22;97914.44;;;6.35
40199;BMP280;25906;43.536;26.068;2023-11-18T11:05:09;97901.53;;;6.24
40199;BMP280;25906;43.536;26.068;2023-11-18T11:08:02;97906.13;;;6.20
40199;BMP280;25906;43.536;26.068;2023-11-18T11:10:50;97906.75;;;6.28
40199;BMP280;25906;43.536;26.068;2023-11-18T11:13:38;97908.81;;;6.17
40199;BMP280;25906;43.536;26.068;2023-11-18T11:16:30;97905.88;;;6.15
40199;BMP280;25906;43.536;26.068;2023-11-18T11:19:38;97897.75;;;6.25
40199;BMP280;25906;43.536;26.068;2023-11-18T11:22:38;97896.41;;;6.37
40199;BMP280;25906;43.536;26.068;2023-11-18T11:25:33;97902.63;;;6.27
40199;BMP280;25906;43.536;26.068;2023-11-18T11:28:21;97904.66;;;6.19
40199;BMP280;25906;43.536;26.068;2023-11-18T11:31:37;97912.78;;;6.25
40199;BMP280;25906;43.536;26.068;2023-11-18T11:34:26;97915.66;;;6.30
40199;BMP280;25906;43.536;26.068;2023-11-18T11:37:14;97923.00;;;6.39
40199;BMP280;25906;43.536;26.068;2023-11-18T11:40:02;97918.56;;;6.36
40199;BMP280;25906;43.536;26.068;2023-11-18T11:42:54;97923.06;;;6.35
40199;BMP280;25906;43.536;26.068;2023-11-18T11:45:40;97912.56;;;6.35
40199;BMP280;25906;43.536;26.068;2023-11-18T11:48:26;97924.28;;;6.31
40199;BMP280;25906;43.536;26.068;2023-11-18T11:51:25;97924.84;;;6.22
40199;BMP280;25906;43.536;26.068;2023-11-18T11:54:20;97921.81;;;6.24
40199;BMP280;25906;43.536;26.068;2023-11-18T11:57:06;97922.56;;;6.24
40199;BMP280;25906;43.536;26.068;2023-11-18T12:02:38;97926.41;;;6.20
40199;BMP280;25906;43.536;26.068;2023-11-18T12:05:25;97936.56;;;6.18
40199;BMP280;25906;43.536;26.068;2023-11-18T12:08:11;97922.63;;;6.21
40199;BMP280;25906;43.536;26.068;2023-11-18T12:10:59;97926.63;;;6.09
40199;BMP280;25906;43.536;26.068;2023-11-18T12:14:01;97913.88;;;6.07
40199;BMP280;25906;43.536;26.068;2023-11-18T12:17:02;97920.63;;;6.08
40199;BMP280;25906;43.536;26.068;2023-11-18T12:19:53;97917.41;;;6.01
40199;BMP280;25906;43.536;26.068;2023-11-18T12:23:03;97919.00;;;6.15
40199;BMP280;25906;43.536;26.068;2023-11-18T12:25:59;97922.50;;;6.08
40199;BMP280;25906;43.536;26.068;2023-11-18T12:28:44;97918.47;;;6.03
40199;BMP280;25906;43.536;26.068;2023-11-18T12:31:40;97925.53;;;6.06
40199;BMP280;25906;43.536;26.068;2023-11-18T12:34:49;97933.69;;;6.12
40199;BMP280;25906;43.536;26.068;2023-11-18T12:56:19;97917.94;;;5.92
40199;BMP280;25906;43.536;26.068;2023-11-18T12:59:16;97924.38;;;6.07
40199;BMP280;25906;43.536;26.068;2023-11-18T13:02:12;97921.75;;;6.07
40199;BMP280;25906;43.536;26.068;2023-11-18T13:05:07;97929.78;;;6.00
40199;BMP280;25906;43.536;26.068;2023-11-18T13:07:57;97935.59;;;6.12
40199;BMP280;25906;43.536;26.068;2023-11-18T13:10:44;97938.75;;;6.03
40199;BMP280;25906;43.536;26.068;2023-11-18T13:13:36;97948.91;;;6.01
40199;BMP280;25906;43.536;26.068;2023-11-18T13:16:21;97954.91;;;6.01
40199;BMP280;25906;43.536;26.068;2023-11-18T13:19:07;97952.81;;;6.13
40199;BMP280;25906;43.536;26.068;2023-11-18T13:21:59;97953.22;;;6.11
40199;BMP280;25906;43.536;26.068;2023-11-18T13:24:45;97958.88;;;6.09
40199;BMP280;25906;43.536;26.068;2023-11-18T13:27:30;97961.78;;;6.15
40199;BMP280;25906;43.536;26.068;2023-11-18T13:30:18;97967.53;;;6.06
40199;BMP280;25906;43.536;26.068;2023-11-18T13:33:06;97966.41;;;6.07
40199;BMP280;25906;43.536;26.068;2023-11-18T13:35:52;97978.25;;;6.16
40199;BMP280;25906;43.536;26.068;2023-11-18T13:38:39;97983.47;;;5.99
40199;BMP280;25906;43.536;26.068;2023-11-18T13:41:30;97979.84;;;6.13
40199;BMP280;25906;43.536;26.068;2023-11-18T13:44:36;97985.41;;;5.95
40199;BMP280;25906;43.536;26.068;2023-11-18T13:47:23;97989.38;;;6.03
40199;BMP280;25906;43.536;26.068;2023-11-18T13:50:10;97996.84;;;6.05
40199;BMP280;25906;43.536;26.068;2023-11-18T13:52:59;97993.72;;;6.14
40199;BMP280;25906;43.536;26.068;2023-11-18T13:55:45;98004.22;;;6.14
40199;BMP280;25906;43.536;26.068;2023-11-18T13:58:34;98007.72;;;6.27
40199;BMP280;25906;43.536;26.068;2023-11-18T14:01:19;97998.34;;;6.06
40199;BMP280;25906;43.536;26.068;2023-11-18T14:04:05;97997.25;;;6.03
40199;BMP280;25906;43.536;26.068;2023-11-18T14:06:51;98004.81;;;6.01
40199;BMP280;25906;43.536;26.068;2023-11-18T14:09:39;98008.22;;;5.98
40199;BMP280;25906;43.536;26.068;2023-11-18T14:12:25;98017.66;;;5.96
40199;BMP280;25906;43.536;26.068;2023-11-18T14:15:12;98018.25;;;6.03
40199;BMP280;25906;43.536;26.068;2023-11-18T14:18:02;98019.09;;;6.00
40199;BMP280;25906;43.536;26.068;2023-11-18T14:20:48;98013.91;;;5.97
40199;BMP280;25906;43.536;26.068;2023-11-18T14:23:35;98002.97;;;5.98
40199;BMP280;25906;43.536;26.068;2023-11-18T14:26:22;98005.28;;;5.96
40199;BMP280;25906;43.536;26.068;2023-11-18T14:29:08;98002.41;;;5.87
40199;BMP280;25906;43.536;26.068;2023-11-18T14:31:53;98013.09;;;6.00
40199;BMP280;25906;43.536;26.068;2023-11-18T14:34:42;98022.25;;;6.12
40199;BMP280;25906;43.536;26.068;2023-11-18T14:37:27;98026.16;;;6.03
40199;BMP280;25906;43.536;26.068;2023-11-18T14:40:14;98031.75;;;6.05
40199;BMP280;25906;43.536;26.068;2023-11-18T14:43:00;98034.25;;;6.13
40199;BMP280;25906;43.536;26.068;2023-11-18T14:46:01;98038.25;;;6.17
40199;BMP280;25906;43.536;26.068;2023-11-18T14:48:46;98033.41;;;5.96
40199;BMP280;25906;43.536;26.068;2023-11-18T14:51:32;98034.56;;;6.15
40199;BMP280;25906;43.536;26.068;2023-11-18T14:54:17;98035.78;;;6.10
40199;BMP280;25906;43.536;26.068;2023-11-18T14:57:03;98038.88;;;6.25
40199;BMP280;25906;43.536;26.068;2023-11-18T14:59:50;98045.63;;;6.26
40199;BMP280;25906;43.536;26.068;2023-11-18T15:02:36;98047.44;;;6.09
40199;BMP280;25906;43.536;26.068;2023-11-18T15:05:21;98038.94;;;6.01
40199;BMP280;25906;43.536;26.068;2023-11-18T15:08:07;98069.94;;;6.10
40199;BMP280;25906;43.536;26.068;2023-11-18T15:10:54;98065.78;;;6.13
40199;BMP280;25906;43.536;26.068;2023-11-18T15:13:40;98075.31;;;5.80
40199;BMP280;25906;43.536;26.068;2023-11-18T15:16:27;98087.88;;;5.68
40199;BMP280;25906;43.536;26.068;2023-11-18T15:19:12;98096.38;;;5.76
40199;BMP280;25906;43.536;26.068;2023-11-18T15:21:58;98107.44;;;5.87
40199;BMP280;25906;43.536;26.068;2023-11-18T15:24:43;98106.41;;;6.04
40199;BMP280;25906;43.536;26.068;2023-11-18T15:27:28;98116.06;;;6.11
40199;BMP280;25906;43.536;26.068;2023-11-18T15:30:15;98118.28;;;5.89
40199;BMP280;25906;43.536;26.068;2023-11-18T15:33:01;98128.00;;;5.92
40199;BMP280;25906;43.536;26.068;2023-11-18T15:35:47;98120.94;;;6.13
40199;BMP280;25906;43.536;26.068;2023-11-18T15:38:33;98118.19;;;5.96
40199;BMP280;25906;43.536;26.068;2023-11-18T15:41:19;98122.63;;;5.99
40199;BMP280;25906;43.536;26.068;2023-11-18T15:44:05;98124.31;;;6.13
40199;BMP280;25906;43.536;26.068;2023-11-18T15:46:50;98128.06;;;6.12
40199;BMP280;25906;43.536;26.068;2023-11-18T15:49:36;98133.69;;;5.87
40199;BMP280;25906;43.536;26.068;2023-11-18T15:52:21;98136.69;;;5.89
40199;BMP280;25906;43.536;26.068;2023-11-18T15:55:07;98134.72;;;5.93
40199;BMP280;25906;43.536;26.068;2023-11-18T15:57:58;98144.06;;;5.98
40199;BMP280;25906;43.536;26.068;2023-11-18T16:00:44;98152.06;;;6.14
40199;BMP280;25906;43.536;26.068;2023-11-18T16:03:29;98153.94;;;6.14
40199;BMP280;25906;43.536;26.068;2023-11-18T16:06:15;98158.44;;;5.90
40199;BMP280;25906;43.536;26.068;2023-11-18T16:09:01;98152.81;;;5.88
40199;BMP280;25906;43.536;26.068;2023-11-18T16:11:47;98150.50;;;5.93
40199;BMP280;25906;43.536;26.068;2023-11-18T16:14:34;98154.22;;;5.96
40199;BMP280;25906;43.536;26.068;2023-11-18T16:17:20;98147.72;;;5.77
40199;BMP280;25906;43.536;26.068;2023-11-18T16:20:07;98149.72;;;5.96
40199;BMP280;25906;43.536;26.068;2023-11-18T16:22:54;98155.38;;;5.91
40199;BMP280;25906;43.536;26.068;2023-11-18T16:25:42;98160.69;;;5.88
40199;BMP280;25906;43.536;26.068;2023-11-18T16:28:27;98166.25;;;5.93